createdAt,value
2019-02-06T00:00:45.923Z,2.99
2019-02-06T00:04:53.048Z,2.99
2019-02-06T00:09:00.663Z,2.93
2019-02-06T00:13:09.754Z,2.84
2019-02-06T00:17:16.766Z,2.95
2019-02-06T00:21:23.777Z,2.89
2019-02-06T00:25:30.934Z,2.83
2019-02-06T00:29:37.749Z,2.69
2019-02-06T00:33:44.801Z,2.66
2019-02-06T00:37:51.693Z,2.51
2019-02-06T00:41:58.675Z,2.54
2019-02-06T00:46:05.868Z,2.50
2019-02-06T00:50:14.595Z,2.41
2019-02-06T00:54:24.910Z,2.23
2019-02-06T00:58:31.785Z,2.07
2019-02-06T01:02:38.600Z,2.11
2019-02-06T01:06:45.415Z,1.97
2019-02-06T01:10:52.376Z,1.93
2019-02-06T01:14:59.564Z,1.96
2019-02-06T01:19:07.109Z,1.90
2019-02-06T01:23:16.127Z,1.78
2019-02-06T01:27:22.615Z,1.74
2019-02-06T01:31:31.833Z,1.70
2019-02-06T01:35:49.246Z,1.59
2019-02-06T01:39:47.227Z,1.62
2019-02-06T01:43:54.096Z,1.46
2019-02-06T01:48:00.953Z,1.37
2019-02-06T01:52:08.902Z,1.36
2019-02-06T01:56:17.472Z,1.29
2019-02-06T02:00:25.651Z,1.29
2019-02-06T02:04:36.067Z,1.18
2019-02-06T02:08:57.685Z,1.16
2019-02-06T02:13:05.120Z,0.99
2019-02-06T04:43:48.955Z,0.05
2019-02-06T04:47:56.247Z,0.04
2019-02-06T04:52:03.363Z,0.04
2019-02-06T04:56:10.251Z,0.16
2019-02-06T05:00:23.629Z,0.09
2019-02-06T05:04:30.546Z,0.11
2019-02-06T05:08:38.094Z,0.45
2019-02-06T05:12:45.182Z,0.15
2019-02-06T05:16:52.131Z,0.16
2019-02-06T05:20:58.997Z,0.04
2019-02-06T05:25:06.585Z,-0.06
2019-02-06T05:29:13.682Z,-0.02
2019-02-06T05:33:20.791Z,-0.08
2019-02-06T05:37:32.287Z,-0.08
2019-02-06T05:41:36.527Z,-0.12
2019-02-06T05:45:46.143Z,-0.14
2019-02-06T05:49:53.027Z,-0.18
2019-02-06T05:54:00.653Z,-0.18
2019-02-06T05:58:09.418Z,-0.17
2019-02-06T06:02:16.376Z,-0.16
2019-02-06T06:06:23.225Z,0.90
2019-02-06T06:10:30.143Z,-0.04
2019-02-06T06:14:36.993Z,0.28
2019-02-06T06:18:43.838Z,0.25
2019-02-06T06:22:51.032Z,0.17
2019-02-06T06:26:57.871Z,0.13
2019-02-06T06:31:04.754Z,-0.04
2019-02-06T06:35:12.972Z,0.03
2019-02-06T06:39:20.051Z,0.02
2019-02-06T06:43:26.932Z,-0.01
2019-02-06T06:47:33.856Z,-0.07
2019-02-06T06:51:40.717Z,-0.21
2019-02-06T06:55:47.600Z,-0.11
2019-02-06T06:59:55.718Z,-0.06
2019-02-06T07:04:02.972Z,-0.08
2019-02-06T07:08:13.383Z,-0.04
2019-02-06T07:12:18.650Z,-0.18
2019-02-06T07:16:26.455Z,-0.16
2019-02-06T07:20:33.848Z,-0.09
2019-02-06T07:24:41.063Z,-0.14
2019-02-06T07:28:48.060Z,0.04
2019-02-06T07:32:55.034Z,0.00
2019-02-06T07:37:01.944Z,-0.05
2019-02-06T07:41:08.811Z,-0.02
2019-02-06T07:45:16.521Z,0.07
2019-02-06T07:49:23.661Z,0.05
2019-02-06T07:53:30.691Z,0.01
2019-02-06T07:57:37.711Z,0.14
2019-02-06T08:01:44.627Z,0.03
2019-02-06T08:05:51.619Z,0.12
2019-02-06T08:09:58.506Z,0.05
2019-02-06T08:14:05.573Z,0.18
2019-02-06T08:18:12.492Z,0.41
2019-02-06T08:22:19.421Z,0.66
2019-02-06T08:26:26.360Z,0.69
2019-02-06T08:30:41.439Z,0.91
2019-02-06T08:34:48.374Z,1.09
2019-02-06T08:38:55.790Z,1.28
2019-02-06T08:43:03.032Z,1.47
2019-02-06T08:47:09.994Z,1.62
2019-02-06T08:51:16.890Z,1.82
2019-02-06T08:55:26.680Z,1.72
2019-02-06T08:59:36.173Z,1.77
2019-02-06T09:03:42.580Z,2.14
2019-02-06T09:07:49.508Z,2.37
2019-02-06T09:11:56.393Z,2.18
2019-02-06T09:16:03.252Z,2.21
2019-02-06T09:20:14.829Z,2.20
2019-02-06T09:24:23.814Z,2.39
2019-02-06T09:28:32.270Z,2.32
2019-02-06T09:32:40.224Z,2.71
2019-02-06T09:36:47.187Z,2.96
2019-02-06T09:40:54.186Z,2.84
2019-02-06T09:45:01.145Z,2.74
2019-02-06T09:49:08.037Z,3.00
2019-02-06T09:53:16.434Z,3.06
2019-02-06T09:57:25.000Z,3.04
2019-02-06T10:01:31.988Z,3.09
2019-02-06T10:05:38.808Z,3.25
2019-02-06T10:09:45.668Z,3.21
2019-02-06T10:13:52.976Z,3.39
2019-02-06T10:18:00.842Z,3.52
2019-02-06T10:22:07.681Z,3.98
2019-02-06T10:26:14.548Z,4.15
2019-02-06T10:30:35.147Z,4.08
2019-02-06T10:34:42.095Z,4.39
2019-02-06T10:38:49.003Z,4.69
2019-02-06T10:42:55.980Z,4.82
2019-02-06T10:47:02.865Z,5.17
2019-02-06T10:51:10.437Z,5.67
2019-02-06T10:55:17.965Z,5.91
2019-02-06T10:59:25.987Z,6.24
2019-02-06T11:03:32.928Z,6.20
2019-02-06T11:07:39.867Z,6.15
2019-02-06T11:11:46.804Z,5.81
2019-02-06T11:15:53.857Z,5.85
2019-02-06T11:20:01.165Z,5.57
2019-02-06T11:24:10.058Z,6.18
2019-02-06T11:28:17.970Z,5.99
2019-02-06T11:32:26.468Z,5.93
2019-02-06T11:36:33.371Z,6.41
2019-02-06T11:40:40.318Z,6.51
2019-02-06T11:44:47.684Z,6.78
2019-02-06T11:48:55.795Z,7.03
2019-02-06T11:53:04.903Z,6.85
2019-02-06T11:57:12.077Z,7.13
2019-02-06T12:01:28.934Z,7.35
2019-02-06T12:05:35.935Z,7.51
2019-02-06T12:09:42.956Z,7.82
2019-02-06T12:13:49.952Z,8.49
2019-02-06T12:17:59.350Z,7.68
2019-02-06T12:22:06.871Z,8.79
2019-02-06T12:26:14.402Z,9.06
2019-02-06T12:30:26.846Z,9.42
2019-02-06T12:34:33.882Z,9.13
2019-02-06T12:38:52.764Z,10.08
2019-02-06T12:42:50.922Z,10.80
2019-02-06T12:46:59.230Z,11.15
2019-02-06T12:51:06.320Z,10.93
2019-02-06T12:55:19.620Z,10.10
2019-02-06T12:59:26.656Z,11.45
2019-02-06T13:03:33.895Z,11.48
2019-02-06T13:07:40.989Z,10.87
2019-02-06T13:11:48.186Z,10.91
2019-02-06T13:15:55.175Z,11.01
2019-02-06T13:20:03.479Z,10.72
2019-02-06T13:24:10.797Z,9.82
2019-02-06T13:28:17.723Z,10.71
2019-02-06T13:32:24.969Z,10.60
2019-02-06T13:36:32.107Z,10.43
2019-02-06T13:40:45.738Z,10.40
2019-02-06T13:44:48.036Z,10.36
2019-02-06T13:48:55.126Z,10.58
2019-02-06T13:53:02.490Z,10.03
2019-02-06T13:57:09.710Z,9.38
2019-02-06T14:01:25.271Z,9.24
2019-02-06T14:05:30.316Z,9.26
2019-02-06T14:09:39.291Z,8.60
2019-02-06T14:13:46.218Z,8.61
2019-02-06T14:17:54.615Z,8.70
2019-02-06T14:22:05.511Z,8.35
2019-02-06T14:26:37.835Z,8.09
2019-02-06T14:31:54.019Z,7.96
2019-02-06T14:37:08.596Z,8.00
2019-02-06T14:41:45.172Z,7.99
2019-02-06T14:46:30.873Z,8.14
2019-02-06T14:51:47.806Z,8.08
2019-02-06T14:56:59.618Z,8.08
2019-02-06T15:01:42.034Z,7.96
2019-02-06T15:06:52.565Z,7.63
2019-02-06T15:11:29.043Z,7.71
2019-02-06T15:16:39.148Z,7.66
2019-02-06T15:21:31.714Z,7.61
2019-02-06T15:26:20.394Z,7.63
2019-02-06T15:31:19.717Z,7.60
2019-02-06T15:36:39.718Z,7.55
2019-02-06T15:41:30.481Z,7.44
2019-02-06T15:46:30.449Z,7.20
2019-02-06T15:51:42.329Z,7.27
2019-02-06T15:56:39.518Z,7.13
2019-02-06T16:01:31.588Z,7.01
2019-02-06T16:06:41.695Z,6.95
2019-02-06T16:12:16.885Z,6.91
2019-02-06T16:17:38.846Z,6.79
2019-02-06T16:22:24.534Z,6.70
2019-02-06T16:27:20.027Z,6.60
2019-02-06T16:32:30.237Z,6.44
2019-02-06T16:37:39.863Z,6.20
2019-02-06T16:42:49.292Z,6.15
2019-02-06T16:48:07.785Z,6.04
2019-02-06T16:53:21.247Z,5.97
2019-02-06T16:58:19.844Z,5.88
2019-02-06T17:03:23.220Z,5.55
2019-02-06T17:08:38.342Z,5.67
2019-02-06T17:13:55.523Z,5.48
2019-02-06T17:18:44.512Z,5.47
2019-02-06T17:24:01.536Z,5.36
2019-02-06T17:29:01.696Z,5.26
2019-02-06T17:34:15.490Z,5.14
2019-02-06T17:38:55.547Z,5.09
2019-02-06T17:43:54.635Z,5.05
2019-02-06T17:48:44.602Z,4.95
2019-02-06T17:53:47.638Z,4.84
2019-02-06T17:58:01.076Z,4.80
2019-02-06T18:02:08.324Z,4.82
2019-02-06T18:06:17.787Z,4.74
2019-02-06T18:10:24.859Z,4.72
2019-02-06T18:14:33.832Z,4.69
2019-02-06T18:18:40.801Z,4.43
2019-02-06T18:22:47.682Z,4.31
2019-02-06T18:26:55.909Z,4.19
2019-02-06T18:31:02.817Z,4.39
2019-02-06T18:35:10.722Z,4.30
2019-02-06T18:39:18.154Z,4.06
2019-02-06T18:43:25.125Z,3.97
2019-02-06T18:47:32.007Z,3.96
2019-02-06T18:51:39.091Z,3.97
2019-02-06T18:55:46.972Z,3.89
2019-02-06T18:59:54.104Z,3.82
2019-02-06T19:04:03.085Z,3.84
2019-02-06T19:08:10.286Z,3.72
2019-02-06T19:12:20.136Z,3.77
2019-02-06T19:16:27.071Z,3.72
2019-02-06T19:20:35.784Z,3.56
2019-02-06T19:24:43.484Z,3.41
2019-02-06T19:28:50.605Z,3.40
2019-02-06T19:32:57.849Z,3.22
2019-02-06T19:37:04.923Z,3.01
2019-02-06T19:41:11.878Z,2.84
2019-02-06T19:45:19.324Z,2.80
2019-02-06T19:49:26.510Z,2.68
2019-02-06T19:53:33.473Z,2.61
2019-02-06T19:57:42.074Z,2.62
2019-02-06T20:01:49.170Z,2.53
2019-02-06T20:05:56.575Z,2.48
2019-02-06T20:10:06.815Z,2.51
2019-02-06T20:14:14.279Z,2.56
2019-02-06T20:18:21.199Z,2.51
2019-02-06T20:22:29.509Z,2.50
2019-02-06T20:26:36.643Z,2.35
2019-02-06T20:30:44.793Z,2.26
2019-02-06T20:34:51.846Z,2.11
2019-02-06T20:38:59.024Z,2.06
2019-02-06T20:43:06.481Z,2.02
2019-02-06T20:47:13.600Z,2.01
2019-02-06T20:51:20.874Z,1.98
2019-02-06T20:55:28.188Z,1.97
2019-02-06T20:59:35.195Z,1.84
2019-02-06T21:03:42.404Z,1.70
2019-02-06T21:07:49.513Z,1.63
2019-02-06T21:11:56.885Z,1.73
2019-02-06T21:16:06.161Z,1.74
2019-02-06T21:20:18.854Z,1.68
2019-02-06T21:24:34.150Z,1.71
2019-02-06T21:28:41.200Z,1.71
2019-02-06T21:32:48.453Z,1.66
2019-02-06T21:37:13.864Z,1.55
2019-02-06T21:41:20.887Z,1.51
2019-02-06T21:45:27.775Z,1.39
2019-02-06T21:49:36.671Z,1.34
2019-02-06T21:53:44.147Z,1.39
2019-02-06T21:57:51.703Z,1.26
2019-02-06T22:01:58.873Z,1.13
2019-02-06T22:06:06.309Z,1.16
2019-02-06T22:10:15.050Z,1.05
2019-02-06T22:14:22.184Z,0.95
2019-02-06T22:18:29.368Z,0.92
2019-02-06T22:22:36.569Z,0.85
2019-02-06T22:26:47.479Z,0.91
2019-02-06T22:30:54.538Z,0.83
2019-02-06T22:35:05.378Z,0.83
2019-02-06T22:39:15.177Z,0.84
2019-02-06T22:43:22.204Z,0.78
2019-02-06T22:47:29.632Z,0.92
2019-02-06T22:51:36.554Z,0.93
2019-02-06T22:55:43.570Z,0.88
2019-02-06T22:59:50.587Z,0.72
2019-02-06T23:03:57.669Z,0.76
2019-02-06T23:08:05.808Z,0.56
2019-02-06T23:12:13.019Z,0.62
2019-02-06T23:16:21.452Z,0.56
2019-02-06T23:20:28.614Z,0.45
2019-02-06T23:24:35.509Z,0.52
2019-02-06T23:28:43.014Z,0.34
2019-02-06T23:32:50.015Z,0.39
2019-02-06T23:36:57.003Z,0.40
2019-02-06T23:41:04.349Z,0.34
2019-02-06T23:45:11.718Z,0.49
2019-02-06T23:49:18.986Z,0.49
2019-02-06T23:53:25.820Z,0.57
2019-02-06T23:57:32.707Z,0.58
